Bluffton, SC

9:09 PM EST on February 11, 2016 (GMT -0500)
Bluffton RHP | | Change Station
CLOSE
Current Station
Personal Weather Station
Location: Bluffton, SC
Elevation: 35 ft
Nearby Weather Stations

Elev 35 ft 32.27 °N, 80.89 °W | Updated 4 minutes ago

Clear
Clear
41.1 °F
Feels Like 41 °F
N
0.0
Wind Variable Wind from ENE
Gusts 4.0 mph

Today
High -- | Low -- °F
--% Chance of Precip.
Yesterday
High -- | Low -- °F
Precip. -- in
Pressure 30.22 in
Visibility 10.0 miles
Clouds Scattered Clouds 7000 ft
Windchill 41 °F
Dew Point 37 °F
Humidity 84%
Rainfall 0.36 in
Snow Depth Not available.
7:10 AM 6:05 PM
Waxing Crescent, 16% visible
METAR KHXD 120155Z AUTO 05004KT 10SM SCT070 08/05 A3022 RMK AO2 P0000
Pressure 30.22 in
Visibility 10.0 miles
Clouds Scattered Clouds 7000 ft
Windchill 41 °F
Dew Point 37 °F
Humidity 84%
Rainfall 0.36 in
Snow Depth Not available.
7:10 AM 6:05 PM
Waxing Crescent, 16% visible
METAR KHXD 120155Z AUTO 05004KT 10SM SCT070 08/05 A3022 RMK AO2 P0000

10-Day Weather Forecast

Almanac

Astronomy

Feb. 11, 2016 Rise Set
Actual Time
Civil Twilight
Nautical Twilight
Astronomical Twilight
Moon
Length of Visible Light
Length of Day
Tomorrow will be .
, % of the Moon is Illuminated

Today's Extremes

State Highs State Lows

Community

WunderPhotos

Upload Photos

1,892,223 photos uploaded!

WunderBlog® & News

Nearby

Air Quality

  Air Quality AQ Index Pollutant
Not available.

Snow Depth

Station Depth Elevation

Earthquake Activity

City Distance Mag. Time & Date
Minimum magnitude displayed is 2.5.

Coastal Water Temperatures

Place Temperature

Stations

Nearby Weather Stations

Station Location Temp. Windchill Dew Point Humidity Wind Precip. Elev Updated Type
                   

Watches & Warnings

There are currently no watches in effect.